sensor_id;sensor_type;location;lat;lon;timestamp;pressure;altitude;pressure_sealevel;temperature
28905;BMP280;60848;53.884;11.446;2023-02-22T00:01:58;101437.94;;;5.21
28905;BMP280;60848;53.884;11.446;2023-02-22T00:04:39;101444.50;;;5.19
28905;BMP280;60848;53.884;11.446;2023-02-22T00:07:07;101438.56;;;5.18
28905;BMP280;60848;53.884;11.446;2023-02-22T00:09:35;101434.28;;;5.22
28905;BMP280;60848;53.884;11.446;2023-02-22T00:12:04;101440.41;;;5.26
28905;BMP280;60848;53.884;11.446;2023-02-22T00:14:33;101436.44;;;5.29
28905;BMP280;60848;53.884;11.446;2023-02-22T00:17:02;101432.78;;;5.30
28905;BMP280;60848;53.884;11.446;2023-02-22T00:19:30;101436.13;;;5.30
28905;BMP280;60848;53.884;11.446;2023-02-22T00:21:58;101431.41;;;5.32
28905;BMP280;60848;53.884;11.446;2023-02-22T00:24:27;101434.00;;;5.32
28905;BMP280;60848;53.884;11.446;2023-02-22T00:26:55;101439.03;;;5.29
28905;BMP280;60848;53.884;11.446;2023-02-22T00:29:25;101432.91;;;5.25
28905;BMP280;60848;53.884;11.446;2023-02-22T00:31:55;101431.56;;;5.19
28905;BMP280;60848;53.884;11.446;2023-02-22T00:34:24;101433.22;;;5.15
28905;BMP280;60848;53.884;11.446;2023-02-22T00:36:52;101428.13;;;5.10
28905;BMP280;60848;53.884;11.446;2023-02-22T00:39:20;101432.25;;;5.11
28905;BMP280;60848;53.884;11.446;2023-02-22T00:41:49;101427.06;;;5.11
28905;BMP280;60848;53.884;11.446;2023-02-22T00:44:17;101427.53;;;5.13
28905;BMP280;60848;53.884;11.446;2023-02-22T00:46:45;101422.53;;;5.16
28905;BMP280;60848;53.884;11.446;2023-02-22T00:49:15;101420.41;;;5.18
28905;BMP280;60848;53.884;11.446;2023-02-22T00:51:43;101427.09;;;5.19
28905;BMP280;60848;53.884;11.446;2023-02-22T00:54:12;101430.00;;;5.18
28905;BMP280;60848;53.884;11.446;2023-02-22T00:56:40;101422.53;;;5.16
28905;BMP280;60848;53.884;11.446;2023-02-22T00:59:08;101423.91;;;5.14
28905;BMP280;60848;53.884;11.446;2023-02-22T01:01:36;101413.06;;;5.12
28905;BMP280;60848;53.884;11.446;2023-02-22T01:04:05;101415.50;;;5.08
28905;BMP280;60848;53.884;11.446;2023-02-22T01:06:35;101413.34;;;5.02
28905;BMP280;60848;53.884;11.446;2023-02-22T01:09:03;101418.66;;;4.97
28905;BMP280;60848;53.884;11.446;2023-02-22T01:11:33;101410.25;;;4.91
28905;BMP280;60848;53.884;11.446;2023-02-22T01:14:01;101401.56;;;4.87
28905;BMP280;60848;53.884;11.446;2023-02-22T01:16:30;101412.06;;;4.82
28905;BMP280;60848;53.884;11.446;2023-02-22T01:18:58;101413.41;;;4.80
28905;BMP280;60848;53.884;11.446;2023-02-22T01:21:27;101413.41;;;4.80
28905;BMP280;60848;53.884;11.446;2023-02-22T01:23:57;101411.88;;;4.79
28905;BMP280;60848;53.884;11.446;2023-02-22T01:26:25;101414.00;;;4.77
28905;BMP280;60848;53.884;11.446;2023-02-22T01:28:53;101417.66;;;4.76
28905;BMP280;60848;53.884;11.446;2023-02-22T01:31:21;101414.59;;;4.74
28905;BMP280;60848;53.884;11.446;2023-02-22T01:33:50;101408.94;;;4.72
28905;BMP280;60848;53.884;11.446;2023-02-22T01:36:19;101417.31;;;4.68
28905;BMP280;60848;53.884;11.446;2023-02-22T01:38:48;101415.34;;;4.65
28905;BMP280;60848;53.884;11.446;2023-02-22T01:41:17;101409.09;;;4.66
28905;BMP280;60848;53.884;11.446;2023-02-22T01:43:46;101417.94;;;4.65
28905;BMP280;60848;53.884;11.446;2023-02-22T01:46:20;101409.84;;;4.67
28905;BMP280;60848;53.884;11.446;2023-02-22T01:48:51;101412.91;;;4.69
28905;BMP280;60848;53.884;11.446;2023-02-22T01:51:22;101409.72;;;4.72
28905;BMP280;60848;53.884;11.446;2023-02-22T01:53:53;101421.28;;;4.75
28905;BMP280;60848;53.884;11.446;2023-02-22T01:56:25;101411.25;;;4.73
28905;BMP280;60848;53.884;11.446;2023-02-22T01:58:55;101415.84;;;4.76
28905;BMP280;60848;53.884;11.446;2023-02-22T02:01:24;101413.25;;;4.76
28905;BMP280;60848;53.884;11.446;2023-02-22T02:03:55;101410.34;;;4.78
28905;BMP280;60848;53.884;11.446;2023-02-22T02:06:24;101406.69;;;4.79
28905;BMP280;60848;53.884;11.446;2023-02-22T02:08:57;101416.00;;;4.80
28905;BMP280;60848;53.884;11.446;2023-02-22T02:11:27;101421.34;;;4.83
28905;BMP280;60848;53.884;11.446;2023-02-22T02:13:57;101424.41;;;4.85
28905;BMP280;60848;53.884;11.446;2023-02-22T02:16:26;101419.09;;;4.90
28905;BMP280;60848;53.884;11.446;2023-02-22T02:19:00;101409.94;;;4.93
28905;BMP280;60848;53.884;11.446;2023-02-22T02:21:41;101410.13;;;4.96
28905;BMP280;60848;53.884;11.446;2023-02-22T02:27:36;101403.69;;;4.94
28905;BMP280;60848;53.884;11.446;2023-02-22T02:30:40;101406.13;;;4.90
28905;BMP280;60848;53.884;11.446;2023-02-22T02:33:12;101403.22;;;4.83
28905;BMP280;60848;53.884;11.446;2023-02-22T02:35:48;101400.47;;;4.80
28905;BMP280;60848;53.884;11.446;2023-02-22T02:38:22;101398.75;;;4.75
28905;BMP280;60848;53.884;11.446;2023-02-22T02:40:59;101399.06;;;4.74
28905;BMP280;60848;53.884;11.446;2023-02-22T02:43:32;101392.63;;;4.71
28905;BMP280;60848;53.884;11.446;2023-02-22T02:46:05;101396.31;;;4.70
28905;BMP280;60848;53.884;11.446;2023-02-22T02:48:37;101401.47;;;4.70
28905;BMP280;60848;53.884;11.446;2023-02-22T02:51:07;101403.47;;;4.73
28905;BMP280;60848;53.884;11.446;2023-02-22T02:53:39;101391.91;;;4.79
28905;BMP280;60848;53.884;11.446;2023-02-22T02:56:09;101391.81;;;4.84
28905;BMP280;60848;53.884;11.446;2023-02-22T02:58:46;101386.44;;;4.89
28905;BMP280;60848;53.884;11.446;2023-02-22T03:01:24;101394.09;;;4.94
28905;BMP280;60848;53.884;11.446;2023-02-22T03:04:05;101390.59;;;4.99
28905;BMP280;60848;53.884;11.446;2023-02-22T03:06:54;101387.13;;;5.03
28905;BMP280;60848;53.884;11.446;2023-02-22T03:09:34;101383.16;;;5.06
28905;BMP280;60848;53.884;11.446;2023-02-22T03:12:12;101383.31;;;5.09
28905;BMP280;60848;53.884;11.446;2023-02-22T03:14:47;101377.06;;;5.10
28905;BMP280;60848;53.884;11.446;2023-02-22T03:17:24;101382.53;;;5.09
28905;BMP280;60848;53.884;11.446;2023-02-22T03:19:59;101382.84;;;5.07
28905;BMP280;60848;53.884;11.446;2023-02-22T03:22:30;101377.19;;;5.05
28905;BMP280;60848;53.884;11.446;2023-02-22T03:25:01;101383.16;;;5.06
28905;BMP280;60848;53.884;11.446;2023-02-22T03:27:35;101380.56;;;5.06
28905;BMP280;60848;53.884;11.446;2023-02-22T03:30:12;101372.78;;;5.06
28905;BMP280;60848;53.884;11.446;2023-02-22T03:32:45;101374.28;;;5.07
28905;BMP280;60848;53.884;11.446;2023-02-22T03:35:18;101372.16;;;5.09
28905;BMP280;60848;53.884;11.446;2023-02-22T03:37:52;101375.22;;;5.11
28905;BMP280;60848;53.884;11.446;2023-02-22T03:40:22;101376.00;;;5.11
28905;BMP280;60848;53.884;11.446;2023-02-22T03:42:55;101367.44;;;5.11
28905;BMP280;60848;53.884;11.446;2023-02-22T03:45:27;101374.94;;;5.12
28905;BMP280;60848;53.884;11.446;2023-02-22T03:47:59;101378.28;;;5.13
28905;BMP280;60848;53.884;11.446;2023-02-22T03:50:32;101368.22;;;5.11
28905;BMP280;60848;53.884;11.446;2023-02-22T03:53:01;101360.44;;;5.11
28905;BMP280;60848;53.884;11.446;2023-02-22T03:55:30;101366.41;;;5.12
28905;BMP280;60848;53.884;11.446;2023-02-22T03:57:59;101369.28;;;5.10
28905;BMP280;60848;53.884;11.446;2023-02-22T04:00:31;101364.69;;;5.07
28905;BMP280;60848;53.884;11.446;2023-02-22T04:03:00;101364.56;;;5.04
28905;BMP280;60848;53.884;11.446;2023-02-22T04:05:30;101366.69;;;5.02
28905;BMP280;60848;53.884;11.446;2023-02-22T04:07:58;101367.00;;;5.00
28905;BMP280;60848;53.884;11.446;2023-02-22T04:10:26;101367.59;;;4.97
28905;BMP280;60848;53.884;11.446;2023-02-22T04:12:55;101364.53;;;4.95
28905;BMP280;60848;53.884;11.446;2023-02-22T04:15:23;101366.50;;;4.90
28905;BMP280;60848;53.884;11.446;2023-02-22T04:17:51;101366.78;;;4.88
28905;BMP280;60848;53.884;11.446;2023-02-22T04:20:20;101361.00;;;4.83
28905;BMP280;60848;53.884;11.446;2023-02-22T04:22:53;101370.88;;;4.81
28905;BMP280;60848;53.884;11.446;2023-02-22T04:25:22;101368.59;;;4.79
28905;BMP280;60848;53.884;11.446;2023-02-22T04:27:50;101371.81;;;4.76
28905;BMP280;60848;53.884;11.446;2023-02-22T04:30:19;101369.00;;;4.72
28905;BMP280;60848;53.884;11.446;2023-02-22T04:32:47;101362.63;;;4.70
28905;BMP280;60848;53.884;11.446;2023-02-22T04:35:16;101357.00;;;4.68
28905;BMP280;60848;53.884;11.446;2023-02-22T04:37:44;101361.41;;;4.68
28905;BMP280;60848;53.884;11.446;2023-02-22T04:40:15;101362.00;;;4.64
28905;BMP280;60848;53.884;11.446;2023-02-22T04:42:44;101361.53;;;4.62
28905;BMP280;60848;53.884;11.446;2023-02-22T04:45:12;101364.44;;;4.61
28905;BMP280;60848;53.884;11.446;2023-02-22T04:47:40;101363.94;;;4.59
28905;BMP280;60848;53.884;11.446;2023-02-22T04:50:11;101364.56;;;4.56
28905;BMP280;60848;53.884;11.446;2023-02-22T04:52:39;101367.16;;;4.56
28905;BMP280;60848;53.884;11.446;2023-02-22T04:55:07;101361.78;;;4.52
28905;BMP280;60848;53.884;11.446;2023-02-22T04:57:37;101363.75;;;4.47
28905;BMP280;60848;53.884;11.446;2023-02-22T05:00:07;101365.09;;;4.44
28905;BMP280;60848;53.884;11.446;2023-02-22T05:02:37;101362.66;;;4.39
28905;BMP280;60848;53.884;11.446;2023-02-22T05:05:06;101357.28;;;4.36
28905;BMP280;60848;53.884;11.446;2023-02-22T05:07:34;101356.66;;;4.30
28905;BMP280;60848;53.884;11.446;2023-02-22T05:10:03;101358.31;;;4.26
28905;BMP280;60848;53.884;11.446;2023-02-22T05:12:31;101370.03;;;4.24
28905;BMP280;60848;53.884;11.446;2023-02-22T05:15:01;101363.03;;;4.24
28905;BMP280;60848;53.884;11.446;2023-02-22T05:17:29;101362.25;;;4.24
28905;BMP280;60848;53.884;11.446;2023-02-22T05:19:57;101363.31;;;4.23
28905;BMP280;60848;53.884;11.446;2023-02-22T05:22:26;101372.59;;;4.24
28905;BMP280;60848;53.884;11.446;2023-02-22T05:24:54;101371.88;;;4.23
28905;BMP280;60848;53.884;11.446;2023-02-22T05:27:22;101371.41;;;4.21
28905;BMP280;60848;53.884;11.446;2023-02-22T05:29:51;101365.63;;;4.24
28905;BMP280;60848;53.884;11.446;2023-02-22T05:32:20;101377.50;;;4.25
28905;BMP280;60848;53.884;11.446;2023-02-22T05:34:49;101383.72;;;4.24
28905;BMP280;60848;53.884;11.446;2023-02-22T05:37:17;101380.09;;;4.25
28905;BMP280;60848;53.884;11.446;2023-02-22T05:39:45;101370.97;;;4.28
28905;BMP280;60848;53.884;11.446;2023-02-22T05:42:13;101375.56;;;4.31
28905;BMP280;60848;53.884;11.446;2023-02-22T05:44:42;101373.44;;;4.33
28905;BMP280;60848;53.884;11.446;2023-02-22T05:47:10;101368.72;;;4.35
28905;BMP280;60848;53.884;11.446;2023-02-22T05:49:40;101376.94;;;4.37
28905;BMP280;60848;53.884;11.446;2023-02-22T05:52:08;101376.94;;;4.37
28905;BMP280;60848;53.884;11.446;2023-02-22T05:54:36;101374.53;;;4.40
28905;BMP280;60848;53.884;11.446;2023-02-22T05:57:05;101375.47;;;4.44
28905;BMP280;60848;53.884;11.446;2023-02-22T05:59:33;101369.25;;;4.45
28905;BMP280;60848;53.884;11.446;2023-02-22T06:02:01;101368.16;;;4.46
28905;BMP280;60848;53.884;11.446;2023-02-22T06:04:30;101376.28;;;4.53
28905;BMP280;60848;53.884;11.446;2023-02-22T06:06:59;101376.91;;;4.59
28905;BMP280;60848;53.884;11.446;2023-02-22T06:09:28;101376.59;;;4.60
28905;BMP280;60848;53.884;11.446;2023-02-22T06:11:56;101383.66;;;4.68
28905;BMP280;60848;53.884;11.446;2023-02-22T06:14:24;101381.38;;;4.76
28905;BMP280;60848;53.884;11.446;2023-02-22T06:16:53;101380.97;;;4.82
28905;BMP280;60848;53.884;11.446;2023-02-22T06:19:21;101388.75;;;4.91
28905;BMP280;60848;53.884;11.446;2023-02-22T06:21:50;101379.78;;;4.97
28905;BMP280;60848;53.884;11.446;2023-02-22T06:24:20;101391.25;;;5.04
28905;BMP280;60848;53.884;11.446;2023-02-22T06:26:53;101387.72;;;5.09
28905;BMP280;60848;53.884;11.446;2023-02-22T06:29:23;101393.56;;;5.14
28905;BMP280;60848;53.884;11.446;2023-02-22T06:31:51;101388.53;;;5.18
28905;BMP280;60848;53.884;11.446;2023-02-22T06:34:20;101384.13;;;5.18
28905;BMP280;60848;53.884;11.446;2023-02-22T06:36:48;101388.84;;;5.16
28905;BMP280;60848;53.884;11.446;2023-02-22T06:39:17;101385.31;;;5.12
28905;BMP280;60848;53.884;11.446;2023-02-22T06:41:47;101386.38;;;5.11
28905;BMP280;60848;53.884;11.446;2023-02-22T06:44:17;101382.53;;;5.09
28905;BMP280;60848;53.884;11.446;2023-02-22T06:46:46;101388.50;;;5.09
28905;BMP280;60848;53.884;11.446;2023-02-22T06:49:15;101389.56;;;5.08
28905;BMP280;60848;53.884;11.446;2023-02-22T06:51:43;101395.03;;;5.07
28905;BMP280;60848;53.884;11.446;2023-02-22T06:54:11;101404.22;;;5.04
28905;BMP280;60848;53.884;11.446;2023-02-22T06:56:39;101402.97;;;5.02
28905;BMP280;60848;53.884;11.446;2023-02-22T06:59:09;101405.41;;;4.98
28905;BMP280;60848;53.884;11.446;2023-02-22T07:01:39;101406.47;;;4.97
28905;BMP280;60848;53.884;11.446;2023-02-22T07:04:08;101404.16;;;4.96
28905;BMP280;60848;53.884;11.446;2023-02-22T07:06:37;101398.69;;;4.97
28905;BMP280;60848;53.884;11.446;2023-02-22T07:09:05;101402.03;;;4.98
28905;BMP280;60848;53.884;11.446;2023-02-22T07:11:33;101407.41;;;5.01
28905;BMP280;60848;53.884;11.446;2023-02-22T07:14:05;101408.28;;;5.05
28905;BMP280;60848;53.884;11.446;2023-02-22T07:16:35;101410.00;;;5.10
28905;BMP280;60848;53.884;11.446;2023-02-22T07:19:03;101411.69;;;5.14
28905;BMP280;60848;53.884;11.446;2023-02-22T07:21:31;101405.31;;;5.20
28905;BMP280;60848;53.884;11.446;2023-02-22T07:24:00;101411.72;;;5.23
28905;BMP280;60848;53.884;11.446;2023-02-22T07:26:33;101412.94;;;5.25
28905;BMP280;60848;53.884;11.446;2023-02-22T07:29:05;101412.34;;;5.28
28905;BMP280;60848;53.884;11.446;2023-02-22T07:31:37;101405.78;;;5.31
28905;BMP280;60848;53.884;11.446;2023-02-22T07:34:06;101415.25;;;5.35
28905;BMP280;60848;53.884;11.446;2023-02-22T07:36:34;101415.72;;;5.37
28905;BMP280;60848;53.884;11.446;2023-02-22T07:39:02;101417.69;;;5.40
28905;BMP280;60848;53.884;11.446;2023-02-22T07:41:34;101418.63;;;5.44
28905;BMP280;60848;53.884;11.446;2023-02-22T07:44:03;101420.31;;;5.49
28905;BMP280;60848;53.884;11.446;2023-02-22T07:46:31;101417.88;;;5.52
28905;BMP280;60848;53.884;11.446;2023-02-22T07:49:01;101410.22;;;5.56
28905;BMP280;60848;53.884;11.446;2023-02-22T07:51:29;101412.69;;;5.61
28905;BMP280;60848;53.884;11.446;2023-02-22T07:53:57;101413.00;;;5.68
28905;BMP280;60848;53.884;11.446;2023-02-22T07:56:26;101416.34;;;5.77
28905;BMP280;60848;53.884;11.446;2023-02-22T07:58:54;101407.47;;;5.87
28905;BMP280;60848;53.884;11.446;2023-02-22T08:01:22;101399.25;;;5.93
28905;BMP280;60848;53.884;11.446;2023-02-22T08:03:51;101405.91;;;6.11
28905;BMP280;60848;53.884;11.446;2023-02-22T08:06:21;101402.25;;;6.21
28905;BMP280;60848;53.884;11.446;2023-02-22T08:08:51;101401.44;;;6.29
28905;BMP280;60848;53.884;11.446;2023-02-22T08:11:20;101404.16;;;6.41
28905;BMP280;60848;53.884;11.446;2023-02-22T08:13:48;101408.06;;;6.55
28905;BMP280;60848;53.884;11.446;2023-02-22T08:16:16;101410.84;;;6.88
28905;BMP280;60848;53.884;11.446;2023-02-22T08:18:44;101414.94;;;7.18
28905;BMP280;60848;53.884;11.446;2023-02-22T08:21:13;101414.13;;;7.47
28905;BMP280;60848;53.884;11.446;2023-02-22T08:23:43;101414.28;;;7.62
28905;BMP280;60848;53.884;11.446;2023-02-22T08:26:11;101413.47;;;7.70
28905;BMP280;60848;53.884;11.446;2023-02-22T08:28:44;101411.88;;;7.78
28905;BMP280;60848;53.884;11.446;2023-02-22T08:31:12;101413.94;;;7.84
28905;BMP280;60848;53.884;11.446;2023-02-22T08:33:41;101407.66;;;7.85
28905;BMP280;60848;53.884;11.446;2023-02-22T08:36:09;101413.66;;;7.86
28905;BMP280;60848;53.884;11.446;2023-02-22T08:38:38;101411.16;;;7.89
28905;BMP280;60848;53.884;11.446;2023-02-22T08:41:08;101416.03;;;7.91
28905;BMP280;60848;53.884;11.446;2023-02-22T08:43:36;101409.31;;;7.90
28905;BMP280;60848;53.884;11.446;2023-02-22T08:46:04;101409.78;;;7.92
28905;BMP280;60848;53.884;11.446;2023-02-22T08:48:33;101404.13;;;7.90
28905;BMP280;60848;53.884;11.446;2023-02-22T08:51:01;101403.44;;;7.93
28905;BMP280;60848;53.884;11.446;2023-02-22T08:53:29;101402.81;;;7.96
28905;BMP280;60848;53.884;11.446;2023-02-22T08:55:58;101412.13;;;7.97
28905;BMP280;60848;53.884;11.446;2023-02-22T08:58:28;101402.63;;;8.01
28905;BMP280;60848;53.884;11.446;2023-02-22T09:00:56;101410.22;;;8.06
28905;BMP280;60848;53.884;11.446;2023-02-22T09:03:24;101404.38;;;8.09
28905;BMP280;60848;53.884;11.446;2023-02-22T09:05:54;101404.38;;;8.09
28905;BMP280;60848;53.884;11.446;2023-02-22T09:08:22;101405.91;;;8.10
28905;BMP280;60848;53.884;11.446;2023-02-22T09:10:51;101405.75;;;8.06
28905;BMP280;60848;53.884;11.446;2023-02-22T09:13:19;101401.00;;;8.08
28905;BMP280;60848;53.884;11.446;2023-02-22T09:15:49;101412.19;;;8.09
28905;BMP280;60848;53.884;11.446;2023-02-22T09:18:17;101404.81;;;8.11
28905;BMP280;60848;53.884;11.446;2023-02-22T09:20:47;101400.00;;;8.13
28905;BMP280;60848;53.884;11.446;2023-02-22T09:23:15;101397.97;;;8.19
28905;BMP280;60848;53.884;11.446;2023-02-22T09:25:43;101401.13;;;8.24
28905;BMP280;60848;53.884;11.446;2023-02-22T09:28:11;101402.88;;;8.20
28905;BMP280;60848;53.884;11.446;2023-02-22T09:30:40;101405.16;;;8.22
28905;BMP280;60848;53.884;11.446;2023-02-22T09:33:11;101393.63;;;8.23
28905;BMP280;60848;53.884;11.446;2023-02-22T09:35:41;101402.31;;;8.27
28905;BMP280;60848;53.884;11.446;2023-02-22T09:38:13;101396.13;;;8.31
28905;BMP280;60848;53.884;11.446;2023-02-22T09:40:44;101399.97;;;8.34
28905;BMP280;60848;53.884;11.446;2023-02-22T09:43:29;101390.38;;;8.38
28905;BMP280;60848;53.884;11.446;2023-02-22T09:48:57;101379.53;;;8.48
28905;BMP280;60848;53.884;11.446;2023-02-22T09:51:27;101390.50;;;8.53
28905;BMP280;60848;53.884;11.446;2023-02-22T09:53:58;101382.34;;;8.55
28905;BMP280;60848;53.884;11.446;2023-02-22T09:56:28;101385.06;;;8.58
28905;BMP280;60848;53.884;11.446;2023-02-22T09:58:59;101386.91;;;8.58
28905;BMP280;60848;53.884;11.446;2023-02-22T10:01:30;101379.19;;;8.61
28905;BMP280;60848;53.884;11.446;2023-02-22T10:04:07;101376.38;;;8.66
28905;BMP280;60848;53.884;11.446;2023-02-22T10:06:39;101376.16;;;8.71
28905;BMP280;60848;53.884;11.446;2023-02-22T10:09:09;101361.47;;;8.79
28905;BMP280;60848;53.884;11.446;2023-02-22T10:11:50;101365.13;;;8.90
28905;BMP280;60848;53.884;11.446;2023-02-22T10:14:34;101361.31;;;8.99
28905;BMP280;60848;53.884;11.446;2023-02-22T10:17:13;101363.47;;;9.09
28905;BMP280;60848;53.884;11.446;2023-02-22T10:19:49;101357.09;;;9.22
28905;BMP280;60848;53.884;11.446;2023-02-22T10:22:30;101361.84;;;9.32
28905;BMP280;60848;53.884;11.446;2023-02-22T10:25:01;101353.09;;;9.41
28905;BMP280;60848;53.884;11.446;2023-02-22T10:27:32;101358.09;;;9.46
28905;BMP280;60848;53.884;11.446;2023-02-22T10:30:04;101354.91;;;9.52
28905;BMP280;60848;53.884;11.446;2023-02-22T10:32:51;101343.81;;;9.55
28905;BMP280;60848;53.884;11.446;2023-02-22T10:35:25;101340.19;;;9.60
28905;BMP280;60848;53.884;11.446;2023-02-22T10:37:55;101343.53;;;9.60
28905;BMP280;60848;53.884;11.446;2023-02-22T10:40:25;101348.53;;;9.65
28905;BMP280;60848;53.884;11.446;2023-02-22T10:43:02;101338.28;;;9.72
28905;BMP280;60848;53.884;11.446;2023-02-22T10:45:32;101338.75;;;9.78
28905;BMP280;60848;53.884;11.446;2023-02-22T10:48:07;101339.63;;;9.82
28905;BMP280;60848;53.884;11.446;2023-02-22T10:50:40;101337.84;;;9.86
28905;BMP280;60848;53.884;11.446;2023-02-22T10:53:10;101330.09;;;9.89
28905;BMP280;60848;53.884;11.446;2023-02-22T10:56:04;101332.09;;;9.96
28905;BMP280;60848;53.884;11.446;2023-02-22T10:58:40;101328.81;;;9.99
28905;BMP280;60848;53.884;11.446;2023-02-22T11:01:23;101329.75;;;10.06
28905;BMP280;60848;53.884;11.446;2023-02-22T11:03:57;101328.69;;;10.11
28905;BMP280;60848;53.884;11.446;2023-02-22T11:06:27;101328.81;;;10.14
28905;BMP280;60848;53.884;11.446;2023-02-22T11:09:04;101326.63;;;10.16
28905;BMP280;60848;53.884;11.446;2023-02-22T11:11:36;101319.50;;;10.17
28905;BMP280;60848;53.884;11.446;2023-02-22T11:14:06;101318.00;;;10.16
28905;BMP280;60848;53.884;11.446;2023-02-22T11:16:38;101320.19;;;10.14
28905;BMP280;60848;53.884;11.446;2023-02-22T11:19:17;101322.06;;;10.13
28905;BMP280;60848;53.884;11.446;2023-02-22T11:21:52;101316.81;;;10.13
28905;BMP280;60848;53.884;11.446;2023-02-22T11:24:22;101318.00;;;10.16
28905;BMP280;60848;53.884;11.446;2023-02-22T11:27:00;101318.78;;;10.16
28905;BMP280;60848;53.884;11.446;2023-02-22T11:29:31;101323.72;;;10.21
28905;BMP280;60848;53.884;11.446;2023-02-22T11:32:02;101321.59;;;10.27
28905;BMP280;60848;53.884;11.446;2023-02-22T11:34:34;101320.84;;;10.26
28905;BMP280;60848;53.884;11.446;2023-02-22T11:37:26;101321.94;;;10.25
28905;BMP280;60848;53.884;11.446;2023-02-22T11:40:12;101308.03;;;10.21
28905;BMP280;60848;53.884;11.446;2023-02-22T11:42:43;101309.22;;;10.24
28905;BMP280;60848;53.884;11.446;2023-02-22T11:45:14;101319.31;;;10.25
28905;BMP280;60848;53.884;11.446;2023-02-22T11:47:50;101296.63;;;10.29
28905;BMP280;60848;53.884;11.446;2023-02-22T11:50:25;101301.88;;;10.29
28905;BMP280;60848;53.884;11.446;2023-02-22T11:53:03;101301.44;;;10.27
28905;BMP280;60848;53.884;11.446;2023-02-22T11:55:38;101303.75;;;10.29
28905;BMP280;60848;53.884;11.446;2023-02-22T11:58:23;101298.06;;;10.27
28905;BMP280;60848;53.884;11.446;2023-02-22T12:00:56;101295.56;;;10.30
28905;BMP280;60848;53.884;11.446;2023-02-22T12:03:45;101283.66;;;10.33
28905;BMP280;60848;53.884;11.446;2023-02-22T12:06:22;101289.59;;;10.33
28905;BMP280;60848;53.884;11.446;2023-02-22T12:09:02;101284.06;;;10.35
28905;BMP280;60848;53.884;11.446;2023-02-22T12:11:38;101288.91;;;10.33
28905;BMP280;60848;53.884;11.446;2023-02-22T12:14:17;101282.53;;;10.34
28905;BMP280;60848;53.884;11.446;2023-02-22T12:19:41;101276.97;;;10.35
28905;BMP280;60848;53.884;11.446;2023-02-22T12:22:14;101273.59;;;10.35
28905;BMP280;60848;53.884;11.446;2023-02-22T12:24:47;101266.09;;;10.33
28905;BMP280;60848;53.884;11.446;2023-02-22T12:27:30;101264.31;;;10.37
28905;BMP280;60848;53.884;11.446;2023-02-22T12:30:04;101273.69;;;10.38
28905;BMP280;60848;53.884;11.446;2023-02-22T12:32:36;101265.50;;;10.40
28905;BMP280;60848;53.884;11.446;2023-02-22T12:35:11;101260.63;;;10.38
28905;BMP280;60848;53.884;11.446;2023-02-22T12:37:49;101256.97;;;10.43
28905;BMP280;60848;53.884;11.446;2023-02-22T12:40:24;101252.22;;;10.48
28905;BMP280;60848;53.884;11.446;2023-02-22T12:42:57;101257.16;;;10.53
28905;BMP280;60848;53.884;11.446;2023-02-22T12:45:35;101256.88;;;10.58
28905;BMP280;60848;53.884;11.446;2023-02-22T12:48:19;101248.06;;;10.66
28905;BMP280;60848;53.884;11.446;2023-02-22T12:50:52;101246.28;;;10.70
28905;BMP280;60848;53.884;11.446;2023-02-22T12:53:24;101245.25;;;10.75
28905;BMP280;60848;53.884;11.446;2023-02-22T12:55:57;101238.13;;;10.75
28905;BMP280;60848;53.884;11.446;2023-02-22T12:58:31;101238.91;;;10.76
28905;BMP280;60848;53.884;11.446;2023-02-22T13:01:02;101234.09;;;10.78
28905;BMP280;60848;53.884;11.446;2023-02-22T13:03:35;101235.94;;;10.77
28905;BMP280;60848;53.884;11.446;2023-02-22T13:06:21;101223.97;;;10.77
28905;BMP280;60848;53.884;11.446;2023-02-22T13:08:59;101221.00;;;10.78
28905;BMP280;60848;53.884;11.446;2023-02-22T13:11:35;101221.81;;;10.82
28905;BMP280;60848;53.884;11.446;2023-02-22T13:14:19;101219.63;;;10.84
28905;BMP280;60848;53.884;11.446;2023-02-22T13:16:52;101221.81;;;10.82
28905;BMP280;60848;53.884;11.446;2023-02-22T13:19:29;101221.06;;;10.82
28905;BMP280;60848;53.884;11.446;2023-02-22T13:22:03;101208.69;;;10.79
28905;BMP280;60848;53.884;11.446;2023-02-22T13:24:36;101212.06;;;10.79
28905;BMP280;60848;53.884;11.446;2023-02-22T13:27:11;101204.97;;;10.80
28905;BMP280;60848;53.884;11.446;2023-02-22T13:29:45;101199.81;;;10.83
28905;BMP280;60848;53.884;11.446;2023-02-22T13:32:23;101202.03;;;10.81
28905;BMP280;60848;53.884;11.446;2023-02-22T13:35:24;101200.97;;;10.86
28905;BMP280;60848;53.884;11.446;2023-02-22T13:38:04;101201.72;;;10.86
28905;BMP280;60848;53.884;11.446;2023-02-22T13:44:05;101206.25;;;10.89
28905;BMP280;60848;53.884;11.446;2023-02-22T13:46:52;101194.66;;;10.90
28905;BMP280;60848;53.884;11.446;2023-02-22T13:49:35;101192.44;;;10.89
28905;BMP280;60848;53.884;11.446;2023-02-22T13:52:07;101202.16;;;10.92
28905;BMP280;60848;53.884;11.446;2023-02-22T13:54:39;101196.63;;;10.93
28905;BMP280;60848;53.884;11.446;2023-02-22T13:57:17;101200.00;;;10.94
28905;BMP280;60848;53.884;11.446;2023-02-22T13:59:48;101201.91;;;10.97
28905;BMP280;60848;53.884;11.446;2023-02-22T14:02:56;101184.34;;;10.97
28905;BMP280;60848;53.884;11.446;2023-02-22T14:08:39;101189.97;;;10.99
28905;BMP280;60848;53.884;11.446;2023-02-22T14:14:23;101182.34;;;11.13
28905;BMP280;60848;53.884;11.446;2023-02-22T14:17:24;101194.41;;;11.18
28905;BMP280;60848;53.884;11.446;2023-02-22T14:20:00;101175.69;;;11.16
28905;BMP280;60848;53.884;11.446;2023-02-22T14:22:32;101176.00;;;11.14
28905;BMP280;60848;53.884;11.446;2023-02-22T14:25:00;101181.66;;;11.16
28905;BMP280;60848;53.884;11.446;2023-02-22T14:27:38;101174.16;;;11.15
28905;BMP280;60848;53.884;11.446;2023-02-22T14:30:22;101179.44;;;11.18
28905;BMP280;60848;53.884;11.446;2023-02-22T14:32:53;101187.19;;;11.11
28905;BMP280;60848;53.884;11.446;2023-02-22T14:35:22;101170.44;;;11.16
28905;BMP280;60848;53.884;11.446;2023-02-22T14:37:58;101171.50;;;11.11
28905;BMP280;60848;53.884;11.446;2023-02-22T14:40:28;101171.13;;;11.13